createdAt,value
2023-02-28T00:00:12.642Z,4.43
2023-02-28T00:02:42.052Z,6.30
2023-02-28T00:05:12.305Z,9.00
2023-02-28T00:07:42.887Z,3.47
2023-02-28T00:10:14.060Z,5.97
2023-02-28T00:12:42.526Z,3.57
2023-02-28T00:15:12.688Z,5.50
2023-02-28T00:17:41.449Z,3.30
2023-02-28T00:20:14.574Z,5.13
2023-02-28T00:22:47.386Z,3.83
2023-02-28T00:25:18.595Z,4.23
2023-02-28T00:27:48.275Z,6.20
2023-02-28T00:30:18.496Z,3.73
2023-02-28T00:32:46.951Z,4.77
2023-02-28T00:35:16.857Z,3.57
2023-02-28T00:37:48.024Z,4.10
2023-02-28T00:40:16.137Z,3.67
2023-02-28T00:42:44.287Z,4.50
2023-02-28T00:45:13.187Z,5.97
2023-02-28T00:47:41.638Z,3.50
2023-02-28T00:50:11.479Z,4.07
2023-02-28T00:52:40.348Z,5.30
2023-02-28T00:55:10.506Z,3.63
2023-02-28T00:57:39.874Z,4.07
2023-02-28T01:00:12.488Z,6.00
2023-02-28T01:02:40.573Z,5.17
2023-02-28T01:05:12.696Z,5.27
2023-02-28T01:07:41.243Z,8.33
2023-02-28T01:10:12.880Z,3.97
2023-02-28T01:12:41.293Z,3.70
2023-02-28T01:15:12.402Z,4.37
2023-02-28T01:17:41.165Z,3.57
2023-02-28T01:20:12.342Z,8.00
2023-02-28T01:22:40.323Z,3.83
2023-02-28T01:25:11.520Z,6.60
2023-02-28T01:27:40.777Z,3.60
2023-02-28T01:30:11.262Z,3.20
2023-02-28T01:32:39.347Z,4.80
2023-02-28T01:35:08.262Z,4.53
2023-02-28T01:37:37.280Z,8.10
2023-02-28T01:42:59.684Z,6.83
2023-02-28T01:45:29.169Z,8.20
2023-02-28T01:48:07.080Z,4.70
2023-02-28T01:50:40.878Z,2.90
2023-02-28T01:53:12.972Z,4.60
2023-02-28T01:55:45.432Z,7.73
2023-02-28T01:58:15.482Z,6.60
2023-02-28T02:00:44.319Z,6.23
2023-02-28T02:03:17.427Z,3.60
2023-02-28T02:05:49.214Z,4.60
2023-02-28T02:08:20.673Z,4.30
2023-02-28T02:10:54.608Z,3.27
2023-02-28T02:13:39.819Z,4.10
2023-02-28T02:16:20.072Z,3.73
2023-02-28T02:18:52.556Z,5.37
2023-02-28T02:21:43.264Z,3.87
2023-02-28T02:24:49.932Z,6.77
2023-02-28T02:27:29.179Z,9.50
2023-02-28T02:30:23.764Z,4.13
2023-02-28T02:33:28.503Z,4.73
2023-02-28T02:36:01.578Z,8.03
2023-02-28T02:38:37.279Z,3.27
2023-02-28T02:41:15.264Z,4.00
2023-02-28T02:43:50.615Z,3.30
2023-02-28T02:46:23.528Z,5.60
2023-02-28T02:48:54.279Z,4.60
2023-02-28T02:51:25.038Z,4.30
2023-02-28T02:53:57.904Z,5.60
2023-02-28T02:56:30.737Z,8.80
2023-02-28T02:59:04.730Z,3.40
2023-02-28T03:01:33.920Z,5.97
2023-02-28T03:04:06.984Z,2.50
2023-02-28T03:06:37.049Z,5.37
2023-02-28T03:09:06.831Z,4.53
2023-02-28T03:11:37.414Z,5.50
2023-02-28T03:14:35.632Z,3.37
2023-02-28T03:17:27.502Z,3.43
2023-02-28T03:20:08.689Z,3.90
2023-02-28T03:23:00.110Z,5.70
2023-02-28T03:25:39.138Z,2.47
2023-02-28T03:28:15.886Z,5.23
2023-02-28T03:30:49.945Z,5.23
2023-02-28T03:33:24.446Z,5.37
2023-02-28T03:35:56.685Z,6.80
2023-02-28T03:38:31.782Z,4.47
2023-02-28T03:41:08.133Z,4.30
2023-02-28T03:43:40.961Z,3.07
2023-02-28T03:46:13.454Z,3.17
2023-02-28T03:48:45.988Z,4.03
2023-02-28T03:51:19.476Z,5.50
2023-02-28T03:53:54.899Z,2.50
2023-02-28T03:56:27.131Z,3.43
2023-02-28T03:59:00.724Z,3.73
2023-02-28T04:01:36.084Z,5.70
2023-02-28T04:04:04.704Z,3.87
2023-02-28T04:06:34.666Z,2.27
2023-02-28T04:09:05.488Z,4.93
2023-02-28T04:11:37.234Z,2.93
2023-02-28T04:14:09.937Z,4.73
2023-02-28T04:16:40.999Z,3.47
2023-02-28T04:19:11.098Z,2.23
2023-02-28T04:21:40.899Z,2.80
2023-02-28T04:24:16.652Z,4.30
2023-02-28T04:26:46.817Z,3.57
2023-02-28T04:29:21.952Z,4.03
2023-02-28T04:31:50.373Z,2.60
2023-02-28T04:34:19.849Z,3.23
2023-02-28T04:36:59.644Z,2.50
2023-02-28T04:39:38.740Z,2.20
2023-02-28T04:42:07.115Z,2.33
2023-02-28T04:44:35.152Z,3.77
2023-02-28T04:47:03.681Z,4.43
2023-02-28T04:49:31.638Z,2.50
2023-02-28T04:52:00.445Z,4.00
2023-02-28T04:54:29.201Z,3.17
2023-02-28T04:56:58.658Z,4.90
2023-02-28T04:59:27.669Z,3.20
2023-02-28T05:01:56.884Z,3.10
2023-02-28T05:04:27.634Z,4.33
2023-02-28T05:06:56.472Z,3.70
2023-02-28T05:09:28.465Z,3.03
2023-02-28T05:12:00.329Z,5.73
2023-02-28T05:14:28.890Z,4.40
2023-02-28T05:16:57.284Z,4.77
2023-02-28T05:19:25.337Z,4.17
2023-02-28T05:21:55.144Z,5.00
2023-02-28T05:24:24.937Z,3.00
2023-02-28T05:26:55.186Z,5.53
2023-02-28T05:29:24.903Z,5.53
2023-02-28T05:31:54.137Z,4.20
2023-02-28T05:34:24.667Z,5.10
2023-02-28T05:36:52.929Z,4.90
2023-02-28T05:39:20.987Z,3.80
2023-02-28T05:41:49.445Z,2.77
2023-02-28T05:44:17.974Z,3.17
2023-02-28T05:46:47.995Z,3.20
2023-02-28T05:49:17.170Z,5.33
2023-02-28T05:51:46.022Z,3.80
2023-02-28T05:54:14.422Z,5.27
2023-02-28T05:56:44.943Z,3.93
2023-02-28T05:59:13.105Z,7.90
2023-02-28T06:01:43.640Z,9.50
2023-02-28T06:04:29.415Z,2.70
2023-02-28T06:07:05.982Z,2.53
2023-02-28T06:09:34.005Z,8.00
2023-02-28T06:12:04.855Z,2.60
2023-02-28T06:14:34.437Z,3.43
2023-02-28T06:17:03.044Z,4.20
2023-02-28T06:19:33.185Z,3.43
2023-02-28T06:22:02.017Z,4.60
2023-02-28T06:24:31.231Z,3.77
2023-02-28T06:27:06.324Z,6.70
2023-02-28T06:29:35.528Z,3.83
2023-02-28T06:32:04.106Z,5.93
2023-02-28T06:34:35.692Z,3.20
2023-02-28T06:37:06.008Z,2.83
2023-02-28T06:39:35.066Z,4.07
2023-02-28T06:42:03.088Z,3.50
2023-02-28T06:44:36.099Z,6.43
2023-02-28T06:47:05.370Z,5.60
2023-02-28T06:49:36.751Z,5.23
2023-02-28T06:52:06.057Z,10.90
2023-02-28T06:54:34.395Z,3.60
2023-02-28T06:57:03.006Z,3.37
2023-02-28T06:59:31.032Z,11.17
2023-02-28T07:02:01.197Z,3.57
2023-02-28T07:04:30.586Z,3.53
2023-02-28T07:07:02.178Z,4.73
2023-02-28T07:09:32.993Z,4.83
2023-02-28T07:12:05.365Z,11.63
2023-02-28T07:14:33.444Z,4.83
2023-02-28T07:17:01.434Z,4.90
2023-02-28T07:19:30.060Z,7.50
2023-02-28T07:21:59.383Z,7.63
2023-02-28T07:24:29.449Z,6.63
2023-02-28T07:26:57.790Z,4.00
2023-02-28T07:29:25.801Z,4.73
2023-02-28T07:31:54.443Z,7.60
2023-02-28T07:34:23.892Z,4.40
2023-02-28T07:36:56.031Z,6.43
2023-02-28T07:39:26.186Z,10.60
2023-02-28T07:41:54.807Z,5.73
2023-02-28T07:44:27.589Z,8.97
2023-02-28T07:46:57.567Z,5.27
2023-02-28T07:49:25.711Z,5.70
2023-02-28T07:51:54.047Z,3.47
2023-02-28T07:54:22.070Z,4.37
2023-02-28T07:56:52.679Z,5.53
2023-02-28T07:59:20.699Z,4.43
2023-02-28T08:01:51.148Z,5.37
2023-02-28T08:04:19.974Z,11.30
2023-02-28T08:06:48.571Z,7.03
2023-02-28T08:09:16.554Z,6.37
2023-02-28T08:11:46.502Z,5.43
2023-02-28T08:14:15.922Z,3.87
2023-02-28T08:16:44.948Z,7.77
2023-02-28T08:19:13.346Z,9.60
2023-02-28T08:21:41.769Z,6.60
2023-02-28T08:24:10.148Z,9.67
2023-02-28T08:26:40.080Z,4.03
2023-02-28T08:29:08.238Z,6.50
2023-02-28T08:31:38.373Z,5.07
2023-02-28T08:34:08.178Z,5.90
2023-02-28T08:36:36.770Z,2.97
2023-02-28T08:39:06.044Z,5.33
2023-02-28T08:41:34.661Z,6.83
2023-02-28T08:44:02.684Z,4.37
2023-02-28T08:46:32.536Z,4.10
2023-02-28T08:49:02.756Z,8.23
2023-02-28T08:51:32.586Z,5.20
2023-02-28T08:54:03.241Z,5.43
2023-02-28T08:56:31.657Z,6.03
2023-02-28T08:58:59.765Z,3.70
2023-02-28T09:01:30.942Z,4.30
2023-02-28T09:04:02.844Z,3.40
2023-02-28T09:06:31.162Z,2.40
2023-02-28T09:09:02.480Z,4.70
2023-02-28T09:11:30.681Z,4.63
2023-02-28T09:14:01.123Z,2.80
2023-02-28T09:16:29.614Z,3.63
2023-02-28T09:18:57.740Z,4.20
2023-02-28T09:21:27.917Z,5.57
2023-02-28T09:23:58.784Z,3.00
2023-02-28T09:26:35.317Z,2.67
2023-02-28T09:29:12.134Z,7.67
2023-02-28T09:31:42.492Z,3.67
2023-02-28T09:34:10.858Z,3.37
2023-02-28T09:36:46.119Z,5.23
2023-02-28T09:39:16.781Z,2.87
2023-02-28T09:41:54.462Z,8.10
2023-02-28T09:44:30.180Z,3.50
2023-02-28T09:47:02.568Z,7.93
2023-02-28T09:49:40.188Z,15.97
2023-02-28T09:52:14.351Z,2.50
2023-02-28T09:54:44.161Z,3.37
2023-02-28T09:57:21.403Z,2.47
2023-02-28T10:00:08.095Z,3.13
2023-02-28T10:03:00.880Z,4.30
2023-02-28T10:05:34.954Z,3.30
2023-02-28T10:08:14.534Z,2.50
2023-02-28T10:10:45.295Z,3.33
2023-02-28T10:13:23.793Z,3.00
2023-02-28T10:15:58.968Z,3.30
2023-02-28T10:18:32.186Z,3.03
2023-02-28T10:21:01.651Z,3.00
2023-02-28T10:23:37.212Z,4.03
2023-02-28T10:26:13.681Z,4.73
2023-02-28T10:28:44.270Z,3.77
2023-02-28T10:31:18.303Z,2.50
2023-02-28T10:33:50.296Z,4.77
2023-02-28T10:36:24.123Z,6.17
2023-02-28T10:38:55.631Z,2.80
2023-02-28T10:41:35.610Z,1.50
2023-02-28T10:44:23.069Z,2.47
2023-02-28T10:46:53.569Z,11.70
2023-02-28T10:49:23.570Z,1.63
2023-02-28T10:51:58.206Z,4.00
2023-02-28T10:54:36.178Z,1.57
2023-02-28T10:57:18.613Z,5.00
2023-02-28T10:59:47.361Z,3.03
2023-02-28T11:02:35.783Z,3.00
2023-02-28T11:05:21.062Z,2.80
2023-02-28T11:07:55.212Z,3.40
2023-02-28T11:10:29.500Z,1.87
2023-02-28T11:13:02.187Z,2.33
2023-02-28T11:15:32.085Z,2.33
2023-02-28T11:20:55.058Z,3.93
2023-02-28T11:23:26.622Z,3.93
2023-02-28T11:26:00.268Z,4.03
2023-02-28T11:28:32.517Z,8.93
2023-02-28T11:31:08.188Z,3.60
2023-02-28T11:33:45.958Z,6.77
2023-02-28T11:36:20.255Z,3.03
2023-02-28T11:38:51.543Z,3.28
2023-02-28T11:41:50.022Z,3.53
2023-02-28T11:44:33.977Z,2.43
2023-02-28T11:47:08.210Z,3.60
2023-02-28T11:49:44.744Z,2.57
2023-02-28T11:52:23.529Z,2.40
2023-02-28T11:55:13.466Z,1.90
2023-02-28T11:57:59.174Z,1.87
2023-02-28T12:00:42.876Z,2.37
2023-02-28T12:03:27.224Z,2.00
2023-02-28T12:06:07.498Z,1.50
2023-02-28T12:08:50.935Z,6.93
2023-02-28T12:11:32.900Z,1.50
2023-02-28T12:14:21.223Z,2.20
2023-02-28T12:17:02.094Z,2.87
2023-02-28T12:19:39.177Z,2.00
2023-02-28T12:22:29.749Z,5.37
2023-02-28T12:25:42.281Z,5.40
2023-02-28T12:28:13.521Z,3.77
2023-02-28T12:30:53.383Z,2.40
2023-02-28T12:33:26.665Z,3.27
2023-02-28T12:36:01.324Z,3.80
2023-02-28T12:38:38.847Z,1.97
2023-02-28T12:41:13.975Z,2.47
2023-02-28T12:43:47.397Z,2.17
2023-02-28T12:46:22.547Z,2.20
2023-02-28T12:48:56.470Z,2.90
2023-02-28T12:51:26.791Z,4.37
2023-02-28T12:54:03.282Z,3.67
2023-02-28T12:56:40.760Z,3.90
2023-02-28T12:59:19.185Z,3.33
2023-02-28T13:02:04.679Z,4.00
2023-02-28T13:04:53.953Z,2.87
2023-02-28T13:07:54.829Z,3.83
2023-02-28T13:10:23.190Z,3.73
2023-02-28T13:13:07.803Z,2.03
2023-02-28T13:15:41.446Z,3.60
2023-02-28T13:18:35.631Z,3.10
2023-02-28T13:21:07.926Z,7.40
2023-02-28T13:24:02.334Z,5.63
2023-02-28T13:27:12.805Z,3.90
2023-02-28T13:29:43.357Z,2.30
2023-02-28T13:32:34.217Z,4.50
2023-02-28T13:35:42.230Z,2.90
2023-02-28T13:38:26.501Z,2.17
2023-02-28T13:40:54.985Z,2.40
2023-02-28T13:43:35.742Z,4.80
2023-02-28T13:46:15.131Z,16.57
2023-02-28T13:48:43.475Z,5.80
2023-02-28T13:51:42.202Z,3.60
2023-02-28T13:54:31.572Z,3.87
2023-02-28T13:57:12.668Z,5.20
2023-02-28T13:59:52.370Z,3.23
2023-02-28T14:02:53.834Z,3.30
2023-02-28T14:05:26.780Z,2.63
2023-02-28T14:07:57.933Z,4.27
2023-02-28T14:10:32.839Z,5.60
2023-02-28T14:13:14.147Z,2.43
2023-02-28T14:15:47.091Z,7.20
2023-02-28T14:18:27.078Z,4.30
2023-02-28T14:21:00.439Z,3.70
2023-02-28T14:23:57.750Z,3.20
2023-02-28T14:26:53.788Z,2.70
2023-02-28T14:29:44.155Z,4.07
2023-02-28T14:32:20.737Z,3.20
2023-02-28T14:34:55.441Z,2.63
2023-02-28T14:37:30.115Z,3.67
2023-02-28T14:39:59.412Z,4.20
2023-02-28T14:42:34.378Z,3.70
2023-02-28T14:45:02.545Z,3.73
2023-02-28T14:47:34.652Z,3.97
2023-02-28T14:50:05.884Z,3.77
2023-02-28T14:52:37.085Z,4.00
2023-02-28T14:55:12.260Z,2.63
2023-02-28T14:57:52.304Z,3.50
2023-02-28T15:00:26.171Z,4.03
2023-02-28T15:02:56.594Z,3.30
2023-02-28T15:05:30.773Z,4.23
2023-02-28T15:08:14.775Z,3.87
2023-02-28T15:10:46.752Z,2.87
2023-02-28T15:13:17.100Z,3.70
2023-02-28T15:16:05.436Z,5.97
2023-02-28T15:18:43.182Z,3.20
2023-02-28T15:21:19.159Z,8.10
2023-02-28T15:23:52.792Z,4.27
2023-02-28T15:26:27.343Z,4.37
2023-02-28T15:29:02.568Z,2.73
2023-02-28T15:31:50.213Z,4.70
2023-02-28T15:34:28.536Z,4.10
2023-02-28T15:37:02.208Z,2.90
2023-02-28T15:39:31.224Z,3.73
2023-02-28T15:42:19.543Z,6.17
2023-02-28T15:44:49.226Z,3.40
2023-02-28T15:47:20.794Z,3.43
2023-02-28T15:49:52.958Z,2.50
2023-02-28T15:52:24.090Z,4.47
2023-02-28T15:54:52.445Z,3.63
2023-02-28T15:57:24.537Z,4.10
2023-02-28T15:59:57.611Z,2.27
2023-02-28T16:02:33.813Z,3.10
2023-02-28T16:05:19.093Z,5.57
2023-02-28T16:07:49.520Z,2.80
2023-02-28T16:10:17.827Z,2.90
2023-02-28T16:12:47.337Z,2.97
2023-02-28T16:15:25.572Z,2.93
2023-02-28T16:17:54.329Z,3.30
2023-02-28T16:20:24.510Z,2.90
2023-02-28T16:22:53.205Z,3.20
2023-02-28T16:25:25.444Z,4.63
2023-02-28T16:27:56.121Z,2.67
2023-02-28T16:30:33.671Z,2.43
2023-02-28T16:33:02.462Z,5.23
2023-02-28T16:35:30.493Z,4.43
2023-02-28T16:37:58.468Z,2.60
2023-02-28T16:40:29.897Z,2.83
2023-02-28T16:43:01.852Z,5.03
2023-02-28T16:45:32.409Z,3.10
2023-02-28T16:48:00.462Z,4.57
2023-02-28T16:50:30.897Z,5.83
2023-02-28T16:52:58.925Z,6.07
2023-02-28T16:55:28.795Z,2.87
2023-02-28T16:57:58.803Z,4.20
2023-02-28T17:00:28.663Z,5.43
2023-02-28T17:02:59.983Z,3.43
2023-02-28T17:05:35.893Z,3.00
2023-02-28T17:08:03.997Z,2.83
2023-02-28T17:10:32.108Z,3.93
2023-02-28T17:13:14.170Z,6.07
2023-02-28T17:15:47.407Z,3.47
2023-02-28T17:18:20.512Z,3.57
2023-02-28T17:20:49.654Z,2.63
2023-02-28T17:23:17.837Z,2.70
2023-02-28T17:25:57.707Z,4.53
2023-02-28T17:28:26.284Z,5.43
2023-02-28T17:30:54.302Z,3.37
2023-02-28T17:33:26.345Z,2.80
2023-02-28T17:35:54.970Z,4.87
2023-02-28T17:38:23.768Z,4.47
2023-02-28T17:40:58.335Z,6.03
2023-02-28T17:43:26.917Z,4.20
2023-02-28T17:45:55.998Z,3.93
2023-02-28T17:48:25.476Z,4.60
2023-02-28T17:50:54.799Z,4.03
2023-02-28T17:53:23.965Z,4.27
2023-02-28T17:55:52.022Z,6.70
2023-02-28T17:58:20.451Z,8.40
2023-02-28T18:00:54.464Z,6.60
2023-02-28T18:03:22.793Z,4.77
2023-02-28T18:05:52.834Z,5.73
2023-02-28T18:08:21.506Z,7.47
2023-02-28T18:10:50.415Z,5.60
2023-02-28T18:13:18.422Z,8.93
2023-02-28T18:15:48.377Z,6.60
2023-02-28T18:18:16.995Z,7.20
2023-02-28T18:20:45.750Z,6.30
2023-02-28T18:23:16.505Z,5.90
2023-02-28T18:25:44.476Z,4.30
2023-02-28T18:28:13.441Z,7.30
2023-02-28T18:30:41.453Z,7.37
2023-02-28T18:33:09.482Z,4.30
2023-02-28T18:35:39.254Z,5.30
2023-02-28T18:38:09.862Z,5.40
2023-02-28T18:40:39.419Z,6.00
2023-02-28T18:43:08.464Z,5.80
2023-02-28T18:45:38.422Z,6.27
2023-02-28T18:48:07.007Z,6.40
2023-02-28T18:50:35.012Z,7.50
2023-02-28T18:53:03.562Z,5.50
2023-02-28T18:55:32.838Z,8.23
2023-02-28T18:58:02.776Z,8.90
2023-02-28T19:00:31.492Z,10.13
2023-02-28T19:02:59.589Z,6.40
2023-02-28T19:05:27.984Z,8.50
2023-02-28T19:07:56.477Z,13.13
2023-02-28T19:10:24.522Z,7.40
2023-02-28T19:12:53.001Z,7.90
2023-02-28T19:15:23.584Z,11.90
2023-02-28T19:17:51.646Z,14.70
2023-02-28T19:20:19.936Z,12.07
2023-02-28T19:22:47.956Z,8.43
2023-02-28T19:25:17.180Z,9.23
2023-02-28T19:27:45.596Z,7.90
2023-02-28T19:30:14.123Z,9.60
2023-02-28T19:32:46.470Z,7.70
2023-02-28T19:35:14.692Z,11.80
2023-02-28T19:37:44.191Z,11.50
2023-02-28T19:40:14.279Z,10.93
2023-02-28T19:42:42.286Z,9.87
2023-02-28T19:45:14.708Z,10.00
2023-02-28T19:47:45.051Z,16.70
2023-02-28T19:50:13.146Z,17.50
2023-02-28T19:52:46.443Z,17.03
2023-02-28T19:55:14.604Z,19.27
2023-02-28T19:57:43.393Z,17.93
2023-02-28T20:00:15.014Z,13.13
2023-02-28T20:02:45.234Z,9.23
2023-02-28T20:05:13.203Z,10.17
2023-02-28T20:07:41.340Z,9.40
2023-02-28T20:10:11.139Z,10.57
2023-02-28T20:12:39.745Z,10.57
2023-02-28T20:15:09.201Z,8.47
2023-02-28T20:17:37.708Z,9.80
2023-02-28T20:20:11.839Z,9.77
2023-02-28T20:22:42.494Z,9.50
2023-02-28T20:25:11.982Z,11.80
2023-02-28T20:27:40.204Z,11.53
2023-02-28T20:30:10.815Z,10.93
2023-02-28T20:32:39.770Z,10.77
2023-02-28T20:35:11.818Z,9.97
2023-02-28T20:37:40.456Z,11.43
2023-02-28T20:40:11.928Z,13.93
2023-02-28T20:42:39.989Z,6.20
2023-02-28T20:45:09.964Z,7.60
2023-02-28T20:47:38.421Z,6.93
2023-02-28T20:50:07.515Z,8.23
2023-02-28T20:52:37.240Z,9.87
2023-02-28T20:55:06.336Z,7.23
2023-02-28T20:57:36.761Z,8.50
2023-02-28T21:00:09.001Z,9.53
2023-02-28T21:02:37.304Z,8.80
2023-02-28T21:05:05.844Z,10.27
2023-02-28T21:07:34.682Z,16.47
2023-02-28T21:10:04.317Z,9.50
2023-02-28T21:12:35.277Z,13.40
2023-02-28T21:15:03.381Z,9.10
2023-02-28T21:17:31.516Z,10.13
2023-02-28T21:19:59.996Z,8.97
2023-02-28T21:22:28.117Z,9.40
2023-02-28T21:24:56.167Z,7.53
2023-02-28T21:27:26.495Z,9.80
2023-02-28T21:29:54.858Z,8.90
2023-02-28T21:32:24.554Z,8.97
2023-02-28T21:34:53.255Z,8.33
2023-02-28T21:37:21.462Z,8.83
2023-02-28T21:39:49.616Z,10.80
2023-02-28T21:42:17.941Z,8.97
2023-02-28T21:44:47.574Z,15.00
2023-02-28T21:47:16.307Z,9.10
2023-02-28T21:49:44.836Z,9.63
2023-02-28T21:52:12.854Z,6.13
2023-02-28T21:54:40.907Z,7.40
2023-02-28T21:57:09.441Z,7.97
2023-02-28T21:59:37.569Z,6.20
2023-02-28T22:02:10.574Z,9.27
2023-02-28T22:04:40.551Z,6.80
2023-02-28T22:07:08.575Z,11.87
2023-02-28T22:09:37.088Z,11.43
2023-02-28T22:12:08.353Z,12.27
2023-02-28T22:14:37.080Z,10.10
2023-02-28T22:17:05.199Z,9.83
2023-02-28T22:19:35.918Z,8.63
2023-02-28T22:22:03.948Z,7.60
2023-02-28T22:24:32.158Z,9.83
2023-02-28T22:27:00.755Z,9.47
2023-02-28T22:29:29.549Z,7.00
2023-02-28T22:31:58.022Z,6.93
2023-02-28T22:34:26.076Z,10.47
2023-02-28T22:36:55.383Z,6.67
2023-02-28T22:39:23.372Z,9.37
2023-02-28T22:41:52.500Z,9.03
2023-02-28T22:44:22.212Z,9.07
2023-02-28T22:46:54.884Z,7.20
2023-02-28T22:49:23.065Z,8.70
2023-02-28T22:51:51.110Z,9.90
2023-02-28T22:54:21.516Z,6.13
2023-02-28T22:56:49.515Z,8.73
2023-02-28T22:59:19.696Z,8.23
2023-02-28T23:01:47.776Z,7.97
2023-02-28T23:04:17.555Z,8.20
2023-02-28T23:06:46.077Z,9.03
2023-02-28T23:09:17.953Z,6.97
2023-02-28T23:11:49.736Z,9.20
2023-02-28T23:14:19.168Z,9.20
2023-02-28T23:16:50.598Z,8.50
2023-02-28T23:19:21.438Z,7.53
2023-02-28T23:21:50.590Z,10.90
2023-02-28T23:24:21.853Z,8.97
2023-02-28T23:26:55.715Z,7.60
2023-02-28T23:29:26.504Z,7.90
2023-02-28T23:31:55.516Z,6.10
2023-02-28T23:34:32.781Z,13.40
2023-02-28T23:37:03.277Z,7.27
2023-02-28T23:39:32.650Z,15.40
2023-02-28T23:42:03.547Z,8.80
2023-02-28T23:44:32.079Z,9.47
2023-02-28T23:47:00.713Z,7.80
2023-02-28T23:49:29.718Z,12.20
2023-02-28T23:51:57.819Z,8.80
2023-02-28T23:54:25.973Z,8.97
2023-02-28T23:56:54.522Z,8.03
2023-02-28T23:59:24.064Z,10.03
